• Join FlightAware (Why Join?)
  • Login
  • US Flag 
03:08PM EDT


 

Airport Tracker/Info


-or-


 

Live Flight TrackerFlight Track Log ✈ SWA1202 ✈ 06-May-2013 ✈ KABQ - KLAX

Flight Track Log - Related Links

Times and Time Zones

All times are in EDT time to prevent confusion due to time zone crossing. See the SWA1202 flight status page for this flight to view local times or setup timezone preferences in your user account.

Time Position Orientation Groundspeed Altitude Reporting Facility
EDT Latitude Longitude Course Direction KTS MPH feet Rate Location/Type
03:50PM 35.0131 -106.7219 266° West 217 250 8,600  Level Albuquerque Center
03:51PM 35.0214 -106.7444 294° West 214 246 9,400 2,400 Climbing Albuquerque Center
03:52PM 35.0439 -106.8236 289° West 237 273 12,100 2,280 Climbing Albuquerque Center
03:53PM 35.0408 -106.9167 268° West 257 296 14,200 1,620 Climbing Albuquerque Center
03:55PM 35.0353 -107.1439 268° West 341 392 17,100 1,620 Climbing Albuquerque Center
03:57PM 35.0281 -107.3944 268° West 369 425 21,000 1,800 Climbing Albuquerque Center
03:59PM 34.9833 -107.5994 270° West  Level FlightAware Approximate
04:01PM 35.0122 -107.9428 262° West 387 445 28,400  Level Albuquerque Center
04:03PM 35.0031 -108.1989 268° West 367 422 31,000 1,200 Climbing Albuquerque Center
04:05PM 34.9328 -108.3553 262° West  Level FlightAware Approximate
04:06PM 34.9244 -108.4314 262° West  Level FlightAware Approximate
04:06PM 34.9903 -108.5678 264° West 355 409 34,600  Level Albuquerque Center
04:08PM 34.9354 -108.7302 248° West  Level FlightAware Approximate
04:09PM 34.9747 -108.9633 264° West 369 425 36,000  Level Albuquerque Center
04:11PM 34.9489 -109.1260 259° West  Level FlightAware Approximate
04:12PM 34.8583 -109.1881 264° West  Level FlightAware Approximate
04:14PM 34.9372 -109.5928 258° West 351 404 36,000  Level Albuquerque Center
04:15PM 34.8806 -109.5656 264° West  Level Estimated
04:15PM 34.9283 -109.7072 265° West 352 405 36,000  Level Albuquerque Center
04:16PM 34.9206 -109.8431 266° West 357 411 36,000  Level Albuquerque Center
04:17PM 34.9106 -109.9597 264° West 360 414 36,000  Level Albuquerque Center
04:18PM 34.8147 -109.9477 259° West  Level FlightAware Approximate
04:19PM 34.7951 -110.0649 259° West  Level FlightAware Approximate
04:19PM 34.8975 -110.0920 263° West  Level FlightAware Approximate
04:20PM 34.7754 -110.1820 258° West  Level FlightAware Approximate
04:20PM 34.8858 -110.3575 265° West 363 418 36,000  Level Albuquerque Center
04:23PM 34.8567 -110.5808 261° West 352 405 36,000  Level Albuquerque Center
04:25PM 34.8236 -110.8336 261° West 353 406 36,000  Level Albuquerque Center
04:26PM 34.8345 -110.9107 265° West  Level FlightAware Approximate
04:27PM 34.7936 -111.0656 261° West 350 403 36,000  Level Albuquerque Center
04:28PM 34.7797 -111.1844 262° West 353 406 36,000  Level Albuquerque Center
04:30PM 34.7514 -111.4119 261° West 345 397 36,000  Level Albuquerque Center
04:31PM 34.7331 -111.5506 261° West 347 399 36,000  Level Albuquerque Center
04:32PM 34.7183 -111.6653 261° West 347 399 36,000  Level Albuquerque Center
04:33PM 34.7031 -111.7797 261° West 346 398 36,000  Level Albuquerque Center
04:34PM 34.6878 -111.8942 261° West 345 397 36,000  Level Albuquerque Center
04:35PM 34.6728 -112.0064 261° West 341 392 36,000  Level Albuquerque Center
04:36PM 34.6583 -112.1186 261° West 340 391 36,000  Level Albuquerque Center
04:38PM 34.6253 -112.3633 261° West 335 386 36,000  Level Albuquerque Center
04:39PM 34.6122 -112.4644 261° West 335 386 36,000  Level Albuquerque Center
04:40PM 34.5969 -112.5764 261° West 336 387 36,000  Level Albuquerque Center
04:41PM 34.5811 -112.6900 260° West 339 390 36,000  Level Albuquerque Center
04:43PM 34.5456 -112.9422 260° West 346 398 36,000  Level Albuquerque Center
04:44PM 34.5292 -113.0583 260° West 348 400 36,000  Level Albuquerque Center
04:46PM 34.4894 -113.3353 260° West 347 399 36,000  Level Los Angeles Center
04:47PM 34.4789 -113.4061 260° West 350 403 36,000  Level Albuquerque Center
04:48PM 34.4606 -113.5425 261° West 348 400 36,000  Level Albuquerque Center
04:50PM 34.4278 -113.7561 260° West 331 381 36,000  Level Albuquerque Center
04:52PM 34.3928 -113.9878 260° West 342 394 36,000  Level Albuquerque Center
04:53PM 34.3750 -114.1078 260° West 357 411 36,000 -60 Level Albuquerque Center
04:54PM 34.3539 -114.2419 259° West 344 396 35,900 -540 Descending Albuquerque Center
04:55PM 34.3378 -114.3536 260° West 340 391 34,900 -960 Descending Albuquerque Center
04:56PM 34.3294 -114.4097 260° West 336 387 34,400 -600 Descending Los Angeles Center
04:57PM 34.3119 -114.5192 259° West 334 384 34,000 -240 Descending Los Angeles Center
04:58PM 34.2953 -114.6308 260° West 338 389 34,000  Level Los Angeles Center
04:59PM 34.2778 -114.7447 259° West 343 395 34,000  Level Los Angeles Center
05:01PM 34.2467 -114.9004 256° West  Level FlightAware Approximate
05:03PM 34.2022 -115.2169 259° West 334 384 34,000  Level Los Angeles Center
05:04PM 34.1842 -115.3286 259° West 338 389 34,000  Level Los Angeles Center
05:06PM 34.1622 -115.4437 257° West  Level FlightAware Approximate
05:07PM 34.1408 -115.5947 257° West 335 386 34,000  Level Los Angeles Center
05:08PM 34.1137 -115.6841 259° West  Level FlightAware Approximate
05:08PM 34.1233 -115.7039 259° West 334 384 34,000  Level Los Angeles Center
05:09PM 34.0951 -115.7960 259° West  Level FlightAware Approximate
05:09PM 34.1050 -115.8136 259° West 333 383 34,000  Level Los Angeles Center
05:10PM 34.0864 -115.9458 260° West 334 384 34,000  Level Los Angeles Center
05:11PM 34.0697 -116.0547 260° West 334 384 34,000  Level Los Angeles Center
05:13PM 34.0333 -116.2975 260° West 339 390 34,000 -780 Level Los Angeles Center
05:14PM 34.0169 -116.4075 260° West 337 388 31,700 -2,400 Descending Los Angeles Center
05:16PM 33.9833 -116.5725 270° West  Level FlightAware Approximate
05:18PM 33.9742 -116.8725 301° West 334 384 21,700  Level Los Angeles Center
05:19PM 33.9667 -116.9667 265° West 310 357 19,900 -2,100 Descending Southern California TRACON
05:20PM 33.9500 -117.0667 259° West 308 354 17,700 -1,740 Descending Southern California TRACON
05:21PM 33.9333 -117.1667 259° West 281 323 16,500 -1,140 Descending Southern California TRACON
05:23PM 33.9210 -117.3536 248° West  Level FlightAware Approximate
05:23PM 33.9289 -117.3300 248° West  Level FlightAware Approximate
05:23PM 33.9161 -117.3250 248° West 293 337 14,000  Level Los Angeles Center
05:24PM 33.9510 -117.4519 301° West  Level FlightAware Approximate
05:24PM 33.9667 -117.3833 316° Northwest 301 346 14,100  Level Southern California TRACON
05:25PM 33.9833 -117.4667 284° West 273 314 12,900 -1,200 Descending Southern California TRACON
05:27PM 33.9972 -117.6056 277° West 279 321 11,100 -1,140 Descending Los Angeles Center
05:28PM 34.0069 -117.6983 277° West 281 323 10,100 -1,260 Descending Los Angeles Center
05:28PM 34.0000 -117.7500 261° West 277 319 9,300 -1,380 Descending Southern California TRACON
05:29PM 33.9833 -117.8500 259° West 276 318 8,100 -960 Descending Southern California TRACON
05:30PM 33.9833 -117.9333 270° West 237 273 7,400 -1,020 Descending Southern California TRACON
05:31PM 33.9667 -118.0000 253° West 237 273 6,100 -1,200 Descending Southern California TRACON
05:32PM 33.9667 -118.0833 270° West 229 264 5,000 -1,140 Descending Southern California TRACON
05:33PM 33.9667 -118.1667 270° West 229 264 3,800 -1,200 Descending Southern California TRACON
05:34PM 33.9500 -118.2333 253° West 217 250 2,700 -1,200 Descending Southern California TRACON
05:35PM 33.9500 -118.3000 270° West 187 215 1,600 -960 Descending Southern California TRACON
05:36PM 33.9333 -118.3500 248° West 136 157 800 -600 Descending Southern California TRACON
05:37PM 33.9378 -118.3917 277° West 149 171 300 -420 Descending Los Angeles Center
05:39PM 33.9333 -118.4000 270° West  Level FlightAware Approximate
05:46PM 33.9425 -118.4081 270° West  Level Estimated